createdAt,value
2022-07-30T00:01:51.773Z,2.05
2022-07-30T00:04:18.860Z,1.90
2022-07-30T00:06:45.255Z,2.10
2022-07-30T00:09:11.613Z,2.10
2022-07-30T00:11:39.835Z,1.90
2022-07-30T00:14:09.752Z,2.35
2022-07-30T00:16:36.513Z,2.10
2022-07-30T00:19:03.072Z,1.50
2022-07-30T00:21:38.558Z,1.90
2022-07-30T00:24:06.426Z,1.80
2022-07-30T00:26:32.774Z,1.80
2022-07-30T00:28:59.178Z,2.22
2022-07-30T00:31:26.143Z,2.05
2022-07-30T00:33:52.530Z,2.45
2022-07-30T00:36:19.174Z,2.05
2022-07-30T00:38:45.613Z,1.95
2022-07-30T00:41:12.123Z,1.80
2022-07-30T00:43:39.160Z,2.03
2022-07-30T00:46:05.729Z,1.95
2022-07-30T00:48:32.121Z,1.90
2022-07-30T00:50:58.608Z,1.90
2022-07-30T00:53:25.460Z,2.10
2022-07-30T00:55:51.818Z,1.65
2022-07-30T00:58:19.763Z,1.90
2022-07-30T01:00:46.376Z,1.67
2022-07-30T01:03:13.081Z,1.95
2022-07-30T01:05:40.436Z,2.00
2022-07-30T01:08:06.949Z,2.30
2022-07-30T01:10:33.382Z,1.95
2022-07-30T01:13:02.233Z,2.13
2022-07-30T01:15:29.041Z,2.42
2022-07-30T01:17:56.716Z,2.35
2022-07-30T01:20:26.104Z,2.10
2022-07-30T01:22:57.736Z,2.33
2022-07-30T01:25:43.050Z,2.20
2022-07-30T01:28:11.328Z,2.28
2022-07-30T01:30:43.218Z,2.15
2022-07-30T01:33:11.607Z,1.80
2022-07-30T01:35:38.660Z,2.10
2022-07-30T01:38:05.878Z,2.20
2022-07-30T01:40:32.756Z,1.70
2022-07-30T01:43:00.732Z,2.00
2022-07-30T01:45:28.920Z,2.20
2022-07-30T01:47:57.427Z,1.70
2022-07-30T01:50:24.593Z,1.85
2022-07-30T01:52:52.376Z,1.90
2022-07-30T01:55:21.693Z,1.92
2022-07-30T01:57:48.403Z,2.22
2022-07-30T02:00:15.802Z,2.28
2022-07-30T02:02:45.629Z,1.98
2022-07-30T02:05:13.271Z,2.17
2022-07-30T02:07:56.205Z,2.47
2022-07-30T02:10:36.535Z,2.25
2022-07-30T02:13:04.582Z,2.17
2022-07-30T02:15:49.804Z,2.13
2022-07-30T02:18:18.419Z,1.95
2022-07-30T02:20:54.245Z,1.88
2022-07-30T02:23:23.641Z,2.47
2022-07-30T02:25:51.705Z,2.00
2022-07-30T02:28:22.057Z,2.50
2022-07-30T02:30:50.323Z,1.83
2022-07-30T02:33:21.424Z,1.90
2022-07-30T02:35:52.177Z,2.00
2022-07-30T02:38:19.197Z,1.92
2022-07-30T02:40:46.752Z,1.77
2022-07-30T02:43:18.603Z,2.35
2022-07-30T02:45:46.707Z,2.15
2022-07-30T02:48:31.207Z,2.25
2022-07-30T02:51:01.173Z,2.20
2022-07-30T02:53:28.077Z,2.00
2022-07-30T02:55:55.419Z,2.13
2022-07-30T02:58:23.238Z,1.70
2022-07-30T03:00:51.005Z,1.95
2022-07-30T03:03:20.123Z,2.00
2022-07-30T03:05:49.015Z,1.80
2022-07-30T03:08:19.935Z,2.08
2022-07-30T03:10:48.538Z,2.22
2022-07-30T03:13:15.527Z,1.80
2022-07-30T03:15:48.920Z,2.33
2022-07-30T03:18:16.881Z,2.30
2022-07-30T03:20:46.002Z,2.05
2022-07-30T03:23:19.664Z,2.08
2022-07-30T03:25:51.057Z,2.25
2022-07-30T03:28:22.305Z,2.00
2022-07-30T03:30:49.921Z,2.33
2022-07-30T03:33:16.702Z,2.30
2022-07-30T03:35:44.409Z,2.30
2022-07-30T03:38:12.254Z,2.55
2022-07-30T03:40:39.676Z,2.25
2022-07-30T03:43:32.352Z,2.08
2022-07-30T03:45:54.609Z,2.35
2022-07-30T03:48:23.520Z,2.17
2022-07-30T03:50:51.965Z,2.38
2022-07-30T03:53:19.518Z,2.20
2022-07-30T03:56:04.599Z,2.25
2022-07-30T03:58:49.859Z,2.47
2022-07-30T04:01:16.742Z,2.60
2022-07-30T04:03:43.693Z,2.47
2022-07-30T04:06:10.941Z,2.60
2022-07-30T04:08:37.531Z,2.40
2022-07-30T04:11:03.998Z,2.25
2022-07-30T04:13:49.051Z,2.47
2022-07-30T04:16:39.641Z,2.72
2022-07-30T04:19:12.462Z,2.40
2022-07-30T04:21:44.889Z,2.50
2022-07-30T04:24:11.856Z,2.20
2022-07-30T04:26:38.610Z,2.35
2022-07-30T04:29:18.194Z,2.95
2022-07-30T04:31:47.273Z,2.35
2022-07-30T04:34:46.769Z,2.40
2022-07-30T04:37:21.605Z,2.03
2022-07-30T04:39:57.343Z,2.00
2022-07-30T04:42:33.131Z,2.35
2022-07-30T04:45:07.452Z,1.98
2022-07-30T04:47:48.983Z,2.10
2022-07-30T04:50:38.489Z,2.15
2022-07-30T04:53:07.656Z,1.75
2022-07-30T04:55:42.310Z,1.80
2022-07-30T04:58:10.963Z,1.85
2022-07-30T05:00:44.829Z,2.10
2022-07-30T05:03:18.867Z,2.00
2022-07-30T05:05:57.504Z,2.08
2022-07-30T05:08:29.881Z,2.10
2022-07-30T05:11:03.740Z,1.83
2022-07-30T05:13:38.165Z,3.15
2022-07-30T05:16:07.793Z,1.80
2022-07-30T05:18:36.267Z,2.00
2022-07-30T05:21:03.985Z,1.70
2022-07-30T05:23:36.262Z,1.70
2022-07-30T05:26:27.856Z,1.73
2022-07-30T05:28:56.920Z,1.70
2022-07-30T05:31:38.090Z,1.40
2022-07-30T05:34:06.474Z,1.70
2022-07-30T05:36:40.240Z,1.80
2022-07-30T05:39:06.693Z,1.58
2022-07-30T05:41:56.159Z,1.70
2022-07-30T05:44:26.635Z,1.77
2022-07-30T05:46:53.200Z,1.52
2022-07-30T05:49:20.075Z,1.45
2022-07-30T05:51:46.727Z,1.63
2022-07-30T05:54:13.420Z,1.52
2022-07-30T05:57:14.969Z,1.90
2022-07-30T05:59:41.507Z,1.70
2022-07-30T06:02:09.193Z,2.10
2022-07-30T06:05:10.890Z,1.70
2022-07-30T06:07:37.511Z,1.70
2022-07-30T06:10:05.878Z,2.05
2022-07-30T06:12:32.427Z,1.52
2022-07-30T06:14:58.921Z,1.40
2022-07-30T06:17:29.449Z,1.40
2022-07-30T06:20:04.517Z,1.20
2022-07-30T06:22:39.870Z,1.40
2022-07-30T06:25:11.820Z,1.70
2022-07-30T06:27:39.925Z,1.50
2022-07-30T06:30:08.507Z,1.52
2022-07-30T06:32:35.787Z,2.08
2022-07-30T06:35:04.735Z,1.52
2022-07-30T06:37:58.489Z,1.50
2022-07-30T06:40:20.038Z,1.38
2022-07-30T06:43:06.316Z,1.50
2022-07-30T06:45:48.810Z,1.50
2022-07-30T06:48:23.622Z,1.30
2022-07-30T06:50:50.835Z,1.77
2022-07-30T06:53:17.429Z,1.70
2022-07-30T06:56:02.672Z,1.92
2022-07-30T06:58:38.690Z,1.25
2022-07-30T07:01:24.962Z,1.60
2022-07-30T07:03:52.609Z,1.73
2022-07-30T07:06:19.505Z,2.00
2022-07-30T07:08:45.913Z,1.70
2022-07-30T07:11:17.610Z,1.50
2022-07-30T07:13:47.100Z,1.73
2022-07-30T07:16:24.961Z,1.58
2022-07-30T07:21:19.535Z,1.42
2022-07-30T07:23:48.464Z,1.75
2022-07-30T07:26:33.401Z,1.60
2022-07-30T07:29:03.485Z,1.35
2022-07-30T07:32:06.805Z,1.40
2022-07-30T07:34:20.131Z,1.42
2022-07-30T07:36:46.511Z,1.50
2022-07-30T07:39:14.858Z,1.42
2022-07-30T07:41:48.783Z,1.85
2022-07-30T07:44:19.592Z,1.40
2022-07-30T07:46:46.113Z,1.30
2022-07-30T07:49:12.726Z,1.85
2022-07-30T07:51:50.836Z,1.73
2022-07-30T07:54:22.283Z,1.42
2022-07-30T07:56:52.962Z,1.60
2022-07-30T07:59:35.872Z,1.83
2022-07-30T08:02:47.428Z,1.42
2022-07-30T08:05:14.805Z,1.27
2022-07-30T08:07:53.248Z,1.60
2022-07-30T08:10:38.100Z,1.88
2022-07-30T08:13:48.408Z,1.75
2022-07-30T08:16:29.189Z,1.58
2022-07-30T08:19:14.088Z,1.73
2022-07-30T08:24:15.952Z,1.65
2022-07-30T08:26:42.400Z,2.08
2022-07-30T08:29:11.121Z,1.42
2022-07-30T08:31:40.904Z,1.60
2022-07-30T08:34:07.351Z,1.77
2022-07-30T08:36:33.743Z,1.55
2022-07-30T08:39:00.144Z,1.63
2022-07-30T08:41:28.027Z,1.95
2022-07-30T08:43:54.641Z,1.80
2022-07-30T08:46:24.402Z,1.92
2022-07-30T08:48:58.233Z,1.73
2022-07-30T08:51:24.900Z,2.15
2022-07-30T08:54:02.328Z,1.52
2022-07-30T08:56:29.984Z,1.80
2022-07-30T08:58:57.225Z,1.80
2022-07-30T09:01:23.736Z,1.63
2022-07-30T09:03:50.313Z,2.00
2022-07-30T09:06:16.760Z,1.70
2022-07-30T09:08:44.122Z,1.80
2022-07-30T09:11:11.088Z,1.52
2022-07-30T09:13:38.537Z,1.60
2022-07-30T09:16:06.621Z,1.73
2022-07-30T09:18:40.682Z,1.40
2022-07-30T09:21:15.137Z,1.55
2022-07-30T09:23:55.150Z,1.52
2022-07-30T09:26:53.996Z,1.60
2022-07-30T09:29:39.261Z,1.85
2022-07-30T09:32:24.118Z,1.80
2022-07-30T09:35:20.365Z,1.90
2022-07-30T09:38:07.307Z,1.70
2022-07-30T09:41:17.226Z,1.83
2022-07-30T09:44:07.414Z,2.08
2022-07-30T09:46:43.136Z,1.90
2022-07-30T09:49:14.170Z,1.70
2022-07-30T09:51:56.545Z,2.00
2022-07-30T09:54:50.966Z,1.40
2022-07-30T09:57:26.275Z,1.45
2022-07-30T10:00:15.268Z,1.67
2022-07-30T10:02:41.833Z,1.33
2022-07-30T10:05:20.859Z,1.73
2022-07-30T10:07:49.487Z,1.67
2022-07-30T10:10:28.053Z,1.73
2022-07-30T10:12:57.929Z,1.83
2022-07-30T10:15:26.866Z,1.80
2022-07-30T10:17:54.892Z,1.30
2022-07-30T10:20:44.484Z,1.50
2022-07-30T10:23:30.326Z,2.10
2022-07-30T10:26:18.305Z,1.50
2022-07-30T10:29:23.497Z,1.65
2022-07-30T10:32:00.841Z,1.73
2022-07-30T10:34:31.369Z,1.30
2022-07-30T10:37:04.611Z,1.20
2022-07-30T10:39:47.153Z,1.40
2022-07-30T10:42:20.342Z,1.50
2022-07-30T10:44:51.810Z,1.40
2022-07-30T10:47:19.210Z,1.75
2022-07-30T10:50:04.474Z,1.33
2022-07-30T10:52:42.720Z,1.80
2022-07-30T10:55:15.989Z,1.30
2022-07-30T10:58:02.211Z,1.30
2022-07-30T11:00:29.715Z,1.20
2022-07-30T11:03:15.998Z,1.50
2022-07-30T11:05:45.537Z,1.50
2022-07-30T11:08:35.857Z,1.40
2022-07-30T11:11:19.822Z,1.27
2022-07-30T11:13:57.423Z,0.93
2022-07-30T11:16:25.132Z,1.40
2022-07-30T11:19:19.573Z,0.90
2022-07-30T11:22:08.597Z,1.05
2022-07-30T11:24:45.379Z,0.88
2022-07-30T11:27:30.731Z,1.08
2022-07-30T11:30:03.115Z,1.17
2022-07-30T11:32:33.902Z,0.85
2022-07-30T11:35:13.065Z,1.08
2022-07-30T11:38:02.026Z,1.42
2022-07-30T11:40:29.860Z,1.17
2022-07-30T11:43:15.633Z,1.00
2022-07-30T11:45:42.613Z,1.17
2022-07-30T11:51:12.008Z,0.88
2022-07-30T11:53:38.402Z,0.90
2022-07-30T11:56:04.984Z,0.93
2022-07-30T11:58:32.721Z,1.13
2022-07-30T12:01:02.261Z,1.08
2022-07-30T12:03:29.933Z,1.00
2022-07-30T12:05:56.437Z,0.75
2022-07-30T12:08:35.929Z,0.98
2022-07-30T12:11:03.141Z,0.90
2022-07-30T12:13:45.008Z,0.73
2022-07-30T12:16:34.993Z,1.08
2022-07-30T12:19:02.260Z,1.05
2022-07-30T12:21:28.687Z,1.15
2022-07-30T12:24:00.571Z,0.80
2022-07-30T12:26:29.261Z,1.20
2022-07-30T12:29:00.119Z,1.00
2022-07-30T12:31:27.489Z,0.90
2022-07-30T12:33:59.111Z,1.00
2022-07-30T12:36:26.086Z,0.98
2022-07-30T12:39:05.032Z,0.90
2022-07-30T12:41:42.616Z,1.15
2022-07-30T12:44:09.296Z,1.30
2022-07-30T12:46:40.608Z,1.02
2022-07-30T12:49:36.610Z,0.95
2022-07-30T12:52:27.919Z,0.80
2022-07-30T12:54:58.364Z,0.90
2022-07-30T12:57:24.693Z,0.80
2022-07-30T13:00:02.760Z,1.00
2022-07-30T13:02:33.630Z,1.08
2022-07-30T13:05:10.932Z,1.08
2022-07-30T13:07:57.770Z,1.00
2022-07-30T13:10:30.057Z,1.13
2022-07-30T13:12:58.331Z,1.20
2022-07-30T13:15:24.837Z,1.08
2022-07-30T13:17:51.358Z,0.90
2022-07-30T13:20:17.908Z,0.90
2022-07-30T13:22:44.641Z,1.20
2022-07-30T13:25:11.431Z,1.00
2022-07-30T13:27:37.955Z,1.40
2022-07-30T13:30:05.167Z,1.00
2022-07-30T13:32:31.550Z,0.95
2022-07-30T13:35:01.402Z,1.20
2022-07-30T13:40:05.951Z,1.02
2022-07-30T13:42:32.575Z,0.95
2022-07-30T13:44:59.037Z,1.02
2022-07-30T13:47:25.435Z,1.15
2022-07-30T13:49:51.845Z,1.05
2022-07-30T13:52:18.842Z,0.77
2022-07-30T13:54:45.275Z,1.00
2022-07-30T13:57:12.021Z,0.90
2022-07-30T13:59:38.479Z,0.90
2022-07-30T14:02:05.061Z,0.90
2022-07-30T14:04:31.772Z,0.88
2022-07-30T14:06:58.339Z,0.90
2022-07-30T14:09:24.824Z,1.60
2022-07-30T14:11:51.953Z,1.00
2022-07-30T14:14:18.475Z,0.88
2022-07-30T14:16:46.890Z,0.90
2022-07-30T14:19:23.116Z,0.82
2022-07-30T14:21:52.587Z,1.00
2022-07-30T14:24:19.278Z,1.00
2022-07-30T14:26:46.005Z,0.85
2022-07-30T14:29:12.444Z,0.90
2022-07-30T14:31:40.412Z,1.10
2022-07-30T14:34:06.837Z,1.08
2022-07-30T14:36:33.370Z,0.80
2022-07-30T14:39:00.406Z,0.93
2022-07-30T14:41:28.536Z,1.10
2022-07-30T14:43:55.341Z,1.00
2022-07-30T14:46:21.881Z,1.10
2022-07-30T14:48:48.710Z,0.93
2022-07-30T14:51:21.729Z,1.08
2022-07-30T14:53:52.071Z,1.13
2022-07-30T14:56:19.479Z,1.52
2022-07-30T14:58:46.045Z,1.20
2022-07-30T15:01:15.662Z,1.48
2022-07-30T15:03:43.625Z,1.30
2022-07-30T15:06:12.668Z,1.30
2022-07-30T15:08:39.381Z,1.20
2022-07-30T15:11:07.994Z,1.40
2022-07-30T15:13:34.835Z,1.15
2022-07-30T15:16:02.922Z,1.48
2022-07-30T15:18:29.813Z,1.20
2022-07-30T15:20:56.339Z,1.33
2022-07-30T15:23:22.796Z,1.30
2022-07-30T15:25:49.534Z,1.05
2022-07-30T15:28:16.014Z,1.38
2022-07-30T15:30:42.634Z,1.00
2022-07-30T15:33:09.036Z,1.23
2022-07-30T15:35:36.467Z,1.17
2022-07-30T15:38:03.218Z,1.30
2022-07-30T15:40:29.832Z,1.20
2022-07-30T15:42:56.297Z,1.00
2022-07-30T15:45:25.668Z,1.17
2022-07-30T15:47:52.070Z,1.13
2022-07-30T15:50:18.509Z,1.27
2022-07-30T15:52:45.105Z,1.02
2022-07-30T15:55:12.229Z,1.33
2022-07-30T15:57:40.489Z,1.42
2022-07-30T16:00:08.444Z,1.02
2022-07-30T16:02:41.652Z,1.25
2022-07-30T16:05:13.317Z,1.30
2022-07-30T16:07:40.451Z,1.40
2022-07-30T16:10:07.029Z,1.00
2022-07-30T16:12:33.468Z,1.13
2022-07-30T16:14:59.857Z,1.10
2022-07-30T16:17:26.479Z,1.30
2022-07-30T16:19:52.861Z,1.42
2022-07-30T16:22:23.736Z,1.23
2022-07-30T16:24:50.716Z,1.10
2022-07-30T16:27:17.318Z,2.47
2022-07-30T16:29:43.765Z,1.20
2022-07-30T16:32:10.094Z,1.65
2022-07-30T16:34:36.557Z,1.20
2022-07-30T16:37:04.077Z,1.20
2022-07-30T16:39:30.784Z,1.20
2022-07-30T16:41:57.247Z,1.00
2022-07-30T16:44:23.698Z,1.02
2022-07-30T16:46:50.093Z,0.85
2022-07-30T16:49:16.525Z,1.10
2022-07-30T16:51:43.920Z,1.23
2022-07-30T16:54:10.452Z,1.35
2022-07-30T16:56:36.919Z,1.38
2022-07-30T16:59:03.320Z,1.10
2022-07-30T17:01:31.093Z,1.05
2022-07-30T17:03:57.957Z,1.10
2022-07-30T17:06:24.589Z,1.17
2022-07-30T17:08:51.004Z,1.10
2022-07-30T17:11:46.130Z,1.17
2022-07-30T17:14:04.253Z,1.20
2022-07-30T17:16:30.692Z,1.10
2022-07-30T17:18:57.156Z,1.55
2022-07-30T17:21:23.558Z,1.30
2022-07-30T17:26:44.750Z,1.20
2022-07-30T17:29:14.720Z,1.25
2022-07-30T17:31:43.937Z,1.20
2022-07-30T17:34:11.059Z,1.23
2022-07-30T17:36:38.469Z,1.20
2022-07-30T17:39:05.345Z,1.05
2022-07-30T17:41:32.194Z,0.95
2022-07-30T17:43:59.041Z,1.00
2022-07-30T17:46:25.583Z,1.58
2022-07-30T17:48:51.952Z,1.10
2022-07-30T17:51:18.364Z,0.95
2022-07-30T17:53:44.753Z,1.20
2022-07-30T17:56:27.153Z,1.45
2022-07-30T17:58:53.874Z,1.27
2022-07-30T18:01:20.429Z,1.30
2022-07-30T18:03:46.949Z,1.20
2022-07-30T18:06:13.362Z,1.55
2022-07-30T18:08:40.828Z,2.10
2022-07-30T18:11:11.870Z,1.73
2022-07-30T18:13:40.159Z,2.22
2022-07-30T18:16:06.729Z,2.90
2022-07-30T18:18:33.135Z,1.75
2022-07-30T18:20:59.568Z,1.50
2022-07-30T18:23:25.992Z,1.48
2022-07-30T18:26:02.499Z,1.30
2022-07-30T18:28:29.023Z,1.55
2022-07-30T18:30:55.380Z,1.45
2022-07-30T18:33:22.192Z,1.10
2022-07-30T18:35:48.753Z,1.60
2022-07-30T18:38:15.176Z,1.33
2022-07-30T18:40:41.558Z,1.20
2022-07-30T18:43:07.942Z,1.42
2022-07-30T18:45:37.119Z,1.48
2022-07-30T18:48:04.034Z,1.15
2022-07-30T18:50:30.685Z,1.10
2022-07-30T18:52:57.060Z,1.40
2022-07-30T18:55:23.443Z,1.13
2022-07-30T18:57:52.121Z,1.77
2022-07-30T19:00:34.594Z,1.52
2022-07-30T19:03:02.134Z,1.75
2022-07-30T19:05:28.817Z,1.60
2022-07-30T19:07:57.451Z,1.20
2022-07-30T19:10:26.272Z,1.40
2022-07-30T19:12:53.067Z,1.38
2022-07-30T19:15:19.474Z,1.60
2022-07-30T19:17:47.074Z,1.50
2022-07-30T19:20:13.671Z,1.75
2022-07-30T19:22:41.630Z,1.38
2022-07-30T19:25:08.438Z,2.00
2022-07-30T19:27:34.954Z,1.73
2022-07-30T19:30:01.583Z,2.00
2022-07-30T19:32:30.197Z,1.70
2022-07-30T19:34:56.686Z,1.35
2022-07-30T19:37:23.690Z,4.47
2022-07-30T19:40:05.368Z,2.60
2022-07-30T19:42:33.651Z,2.38
2022-07-30T19:45:01.235Z,2.10
2022-07-30T19:47:28.233Z,3.10
2022-07-30T19:50:04.953Z,1.98
2022-07-30T19:52:32.017Z,1.85
2022-07-30T19:54:58.641Z,3.95
2022-07-30T19:57:25.048Z,2.15
2022-07-30T20:00:11.641Z,2.97
2022-07-30T20:02:40.749Z,2.28
2022-07-30T20:05:11.046Z,1.70
2022-07-30T20:07:41.381Z,1.88
2022-07-30T20:10:11.437Z,1.42
2022-07-30T20:12:39.813Z,1.65
2022-07-30T20:15:12.389Z,1.70
2022-07-30T20:17:46.403Z,2.17
2022-07-30T20:20:13.602Z,1.52
2022-07-30T20:22:40.173Z,1.70
2022-07-30T20:25:07.094Z,1.70
2022-07-30T20:27:35.786Z,1.58
2022-07-30T20:30:25.372Z,2.00
2022-07-30T20:32:52.482Z,1.35
2022-07-30T20:35:21.705Z,2.00
2022-07-30T20:37:55.201Z,2.00
2022-07-30T20:40:24.576Z,2.10
2022-07-30T20:42:53.549Z,1.90
2022-07-30T20:45:23.560Z,1.92
2022-07-30T20:47:53.203Z,1.95
2022-07-30T20:50:30.582Z,1.60
2022-07-30T20:52:57.922Z,1.98
2022-07-30T20:55:24.655Z,2.03
2022-07-30T20:58:01.132Z,1.70
2022-07-30T21:00:37.873Z,2.03
2022-07-30T21:03:05.410Z,1.83
2022-07-30T21:05:31.884Z,1.90
2022-07-30T21:07:58.548Z,2.03
2022-07-30T21:10:25.456Z,2.00
2022-07-30T21:12:57.167Z,2.30
2022-07-30T21:16:02.346Z,2.00
2022-07-30T21:18:29.798Z,2.00
2022-07-30T21:20:57.248Z,2.42
2022-07-30T21:23:23.768Z,2.00
2022-07-30T21:28:40.457Z,2.22
2022-07-30T21:31:07.627Z,2.53
2022-07-30T21:33:37.002Z,2.50
2022-07-30T21:36:03.968Z,2.40
2022-07-30T21:38:31.957Z,2.72
2022-07-30T21:41:00.339Z,2.20
2022-07-30T21:43:29.389Z,2.85
2022-07-30T21:45:57.552Z,2.72
2022-07-30T21:48:24.191Z,2.47
2022-07-30T21:50:50.647Z,2.58
2022-07-30T21:53:17.036Z,2.33
2022-07-30T21:55:56.408Z,2.28
2022-07-30T21:58:25.910Z,2.92
2022-07-30T22:00:55.012Z,2.28
2022-07-30T22:04:04.536Z,2.80
2022-07-30T22:06:08.079Z,2.42
2022-07-30T22:11:05.541Z,2.75
2022-07-30T22:13:35.961Z,3.03
2022-07-30T22:16:18.223Z,2.60
2022-07-30T22:18:45.453Z,2.67
2022-07-30T22:21:12.062Z,2.75
2022-07-30T22:23:41.208Z,2.40
2022-07-30T22:26:23.601Z,2.83
2022-07-30T22:28:54.396Z,2.88
2022-07-30T22:31:20.987Z,2.72
2022-07-30T22:33:47.868Z,2.88
2022-07-30T22:36:17.452Z,2.63
2022-07-30T22:38:58.627Z,2.92
2022-07-30T22:41:25.780Z,3.05
2022-07-30T22:43:55.610Z,3.00
2022-07-30T22:46:30.477Z,3.33
2022-07-30T22:48:57.694Z,3.20
2022-07-30T22:51:25.760Z,3.47
2022-07-30T22:54:12.864Z,3.28
2022-07-30T22:56:40.111Z,3.58
2022-07-30T22:59:06.478Z,3.22
2022-07-30T23:01:32.983Z,3.13
2022-07-30T23:03:59.360Z,3.63
2022-07-30T23:06:27.995Z,3.30
2022-07-30T23:08:56.466Z,3.00
2022-07-30T23:11:22.876Z,3.50
2022-07-30T23:12:32.937Z,2.05
2022-07-30T23:13:49.308Z,3.28
2022-07-30T23:16:15.663Z,3.58
2022-07-30T23:18:42.236Z,3.90
2022-07-30T23:21:08.770Z,3.30
2022-07-30T23:23:35.816Z,3.40
2022-07-30T23:26:03.618Z,3.42
2022-07-30T23:28:30.316Z,3.47
2022-07-30T23:30:56.707Z,3.67
2022-07-30T23:33:23.121Z,3.55
2022-07-30T23:35:49.521Z,3.33
2022-07-30T23:38:15.869Z,4.03
2022-07-30T23:40:42.396Z,3.83
2022-07-30T23:43:09.208Z,3.42
2022-07-30T23:45:35.664Z,4.10
2022-07-30T23:48:03.527Z,4.10
2022-07-30T23:50:31.038Z,4.10
2022-07-30T23:52:57.480Z,3.90
2022-07-30T23:55:23.911Z,3.95
2022-07-30T23:57:50.307Z,4.28
